Time;durP1;ratioP1;P1;durP2;ratioP2;P2;SDS_P1;SDS_P2;PMS_P1;PMS_P2;Temp;Humidity;BMP_temperature;BMP_pressure;BME280_temperature;BME280_humidity;BME280_pressure;Samples;Min_cycle;Max_cycle;Signal;HPM_P1;HPM_P2
2021/03/15 00:00:16;;;;;;;9.98;5.28;;;;;;;3.22;98.41;100002.47;5010042;28;20049;-78
2021/03/15 00:02:44;;;;;;;9.73;5.70;;;;;;;3.11;98.24;100011.56;4993210;28;20191;-79
2021/03/15 00:05:12;;;;;;;12.68;6.03;;;;;;;3.20;98.46;100006.06;5008987;28;20054;-79
2021/03/15 00:07:40;;;;;;;10.68;5.78;;;;;;;3.19;98.79;100009.53;5012097;28;20056;-79
2021/03/15 00:10:08;;;;;;;14.40;6.53;;;;;;;3.10;98.48;100009.88;4993562;28;20394;-78
2021/03/15 00:12:35;;;;;;;10.95;5.53;;;;;;;3.08;98.73;100011.72;4999336;28;20072;-77
2021/03/15 00:15:04;;;;;;;10.45;5.38;;;;;;;3.12;98.92;100002.88;5009962;28;20378;-79
2021/03/15 00:17:31;;;;;;;14.23;6.20;;;;;;;3.02;98.96;100003.25;5009006;28;20067;-79
2021/03/15 00:19:58;;;;;;;11.52;5.55;;;;;;;3.00;99.37;100007.63;5009692;28;20196;-79
2021/03/15 00:22:25;;;;;;;12.10;5.70;;;;;;;2.97;99.42;99999.97;5010863;28;20050;-79
2021/03/15 00:24:52;;;;;;;8.07;5.05;;;;;;;3.02;99.12;100005.00;5016298;28;20049;-78
2021/03/15 00:27:19;;;;;;;13.02;4.88;;;;;;;3.04;99.33;100001.41;5028385;28;20057;-77
2021/03/15 00:29:46;;;;;;;8.65;4.32;;;;;;;3.01;99.35;100000.69;4999440;28;20140;-79
2021/03/15 00:32:12;;;;;;;10.85;5.63;;;;;;;3.01;98.81;100004.13;5009535;28;20076;-79
2021/03/15 00:34:39;;;;;;;7.20;4.70;;;;;;;3.11;99.16;100008.97;4975034;28;20052;-78
2021/03/15 00:37:06;;;;;;;8.25;4.82;;;;;;;3.17;99.05;100001.81;5017990;28;20051;-79
2021/03/15 00:39:33;;;;;;;6.20;4.32;;;;;;;3.22;98.67;100001.63;5006951;28;20045;-78
2021/03/15 00:42:00;;;;;;;6.93;4.35;;;;;;;3.19;98.60;100002.56;5013810;28;20053;-80
2021/03/15 00:44:29;;;;;;;6.93;4.28;;;;;;;3.18;97.95;99998.28;4991713;28;20064;-78
2021/03/15 00:46:56;;;;;;;10.27;3.88;;;;;;;3.13;98.27;99996.78;5015534;28;20050;-79
2021/03/15 00:49:23;;;;;;;10.18;4.18;;;;;;;2.91;98.55;100007.13;4992211;28;20096;-78
2021/03/15 00:51:50;;;;;;;9.25;4.38;;;;;;;2.88;99.83;99997.72;5017585;28;20049;-77
2021/03/15 00:54:20;;;;;;;8.50;4.13;;;;;;;2.88;99.29;100000.31;5010714;28;20612;-77
2021/03/15 00:56:47;;;;;;;12.00;4.13;;;;;;;2.92;99.22;99996.66;4998227;28;20049;-77
2021/03/15 00:59:14;;;;;;;8.00;3.95;;;;;;;2.98;99.62;99996.47;5019920;28;20079;-77
2021/03/15 01:01:41;;;;;;;8.05;3.90;;;;;;;3.16;99.16;100004.47;4981485;28;20084;-78
2021/03/15 01:04:11;;;;;;;11.00;3.67;;;;;;;3.16;99.01;100005.31;5016358;28;20128;-78
2021/03/15 01:06:41;;;;;;;8.10;3.22;;;;;;;3.18;98.51;100003.50;4999604;28;20057;-77
2021/03/15 01:09:08;;;;;;;8.65;3.80;;;;;;;3.20;98.19;99998.25;5031275;28;20060;-79
2021/03/15 01:11:39;;;;;;;9.80;3.45;;;;;;;3.27;97.76;100000.53;5014236;28;20060;-78
2021/03/15 01:14:07;;;;;;;5.35;3.40;;;;;;;3.27;98.39;100000.53;5017474;28;20049;-78
2021/03/15 01:16:34;;;;;;;9.65;3.85;;;;;;;3.31;98.13;100006.47;4997980;28;20076;-78
2021/03/15 01:19:01;;;;;;;7.45;3.88;;;;;;;3.49;98.08;100004.91;5005603;28;20068;-79
2021/03/15 01:21:27;;;;;;;9.65;4.10;;;;;;;3.47;96.88;99998.91;4992855;28;20050;-78
2021/03/15 01:23:55;;;;;;;9.20;3.72;;;;;;;3.43;97.43;100003.41;5013118;28;20050;-78
2021/03/15 01:26:21;;;;;;;8.27;4.25;;;;;;;3.58;97.13;99990.69;5001024;28;20071;-79
2021/03/15 01:28:48;;;;;;;9.07;3.83;;;;;;;3.59;96.35;99994.97;4986476;28;20125;-77
2021/03/15 01:31:15;;;;;;;8.50;3.67;;;;;;;3.73;96.24;99982.22;5036152;28;20068;-77
2021/03/15 01:33:42;;;;;;;10.02;4.57;;;;;;;3.56;96.25;99988.16;4996057;28;20433;-79
2021/03/15 01:36:09;;;;;;;6.35;3.83;;;;;;;3.55;96.71;99991.63;5012509;28;20085;-77
2021/03/15 01:38:36;;;;;;;7.63;3.88;;;;;;;3.59;96.15;99982.78;5002568;28;20040;-78
2021/03/15 01:41:03;;;;;;;5.95;4.05;;;;;;;3.65;96.45;99985.16;5000363;28;20071;-78
2021/03/15 01:43:30;;;;;;;7.53;4.15;;;;;;;3.54;96.20;99982.13;5016463;28;20065;-79
2021/03/15 01:45:56;;;;;;;11.00;4.45;;;;;;;3.53;96.01;99978.69;5017068;28;20068;-79
2021/03/15 01:48:23;;;;;;;9.27;4.00;;;;;;;3.70;95.72;99971.97;5014152;28;20073;-78
2021/03/15 01:50:50;;;;;;;8.82;3.78;;;;;;;3.67;96.06;99975.53;5018948;28;20053;-78
2021/03/15 01:53:19;;;;;;;10.65;4.30;;;;;;;3.76;95.40;99966.50;5020704;28;20060;-78
2021/03/15 01:55:46;;;;;;;9.05;4.50;;;;;;;3.84;94.99;99966.19;5017326;28;20049;-76
2021/03/15 01:58:13;;;;;;;9.25;3.83;;;;;;;3.69;94.53;99970.25;5017185;28;20045;-78
2021/03/15 02:00:41;;;;;;;9.45;4.05;;;;;;;3.64;95.32;99969.59;5013763;28;20053;-78
2021/03/15 02:03:08;;;;;;;6.75;4.20;;;;;;;3.75;94.82;99963.03;5002376;28;20528;-79
2021/03/15 02:05:37;;;;;;;8.15;4.30;;;;;;;3.73;95.38;99962.25;4988117;28;20041;-79
2021/03/15 02:08:04;;;;;;;15.50;4.50;;;;;;;3.46;95.24;99952.97;5020043;28;20050;-78
2021/03/15 02:10:33;;;;;;;9.05;4.10;;;;;;;3.60;95.70;99949.81;5017771;28;20139;-79
2021/03/15 02:13:11;;;;;;;8.15;4.47;;;;;;;3.50;95.79;99951.94;5015017;28;20046;-77
2021/03/15 02:15:56;;;;;;;8.07;4.55;;;;;;;3.41;95.32;99950.56;5009174;28;20058;-78
2021/03/15 02:19:00;;;;;;;7.88;4.32;;;;;;;3.37;96.53;99941.19;4989158;28;20064;-78
2021/03/15 02:21:56;;;;;;;7.88;4.30;;;;;;;3.42;96.11;99943.59;5010391;28;20065;-78
2021/03/15 02:24:29;;;;;;;11.65;4.55;;;;;;;3.35;96.71;99943.00;4994738;28;20045;-77
2021/03/15 02:27:19;;;;;;;13.50;4.78;;;;;;;3.38;96.36;99935.09;5015187;28;20073;-78
2021/03/15 02:30:02;;;;;;;11.48;4.88;;;;;;;3.49;95.70;99938.09;4976609;28;20052;-78
2021/03/15 02:32:46;;;;;;;7.80;3.85;;;;;;;3.59;95.93;99940.31;5019253;28;20064;-79
2021/03/15 02:35:21;;;;;;;10.98;4.45;;;;;;;3.82;94.98;99937.59;5007216;28;20050;-78
2021/03/15 02:38:07;;;;;;;9.43;3.95;;;;;;;3.41;95.74;99929.75;5014553;28;20064;-79
2021/03/15 02:40:59;;;;;;;8.00;4.88;;;;;;;3.42;95.89;99936.66;4993162;28;20712;-78
2021/03/15 02:43:31;;;;;;;6.13;4.40;;;;;;;3.51;95.75;99925.88;4996932;28;20267;-77
2021/03/15 02:46:03;;;;;;;8.07;3.85;;;;;;;3.61;95.50;99928.09;5010225;28;20058;-78
2021/03/15 02:48:31;;;;;;;7.50;3.80;;;;;;;3.40;96.11;99925.44;5016477;28;20506;-78
2021/03/15 02:50:58;;;;;;;10.80;4.63;;;;;;;3.60;95.49;99932.44;5019406;28;20102;-77
2021/03/15 02:53:26;;;;;;;9.48;4.35;;;;;;;3.47;95.55;99931.28;5002539;28;20072;-79
2021/03/15 02:55:58;;;;;;;7.00;4.50;;;;;;;3.54;95.93;99932.69;5016708;28;20049;-78
2021/03/15 02:58:26;;;;;;;9.45;5.00;;;;;;;3.64;94.96;99930.56;4998747;28;20037;-78
2021/03/15 03:00:52;;;;;;;9.75;4.00;;;;;;;3.64;94.43;99925.34;5012610;28;20161;-79
2021/03/15 03:03:21;;;;;;;8.68;4.13;;;;;;;3.66;94.61;99928.75;5018203;28;20170;-79
2021/03/15 03:05:51;;;;;;;8.57;3.92;;;;;;;3.70;94.03;99931.16;5018220;28;20156;-78
2021/03/15 03:08:19;;;;;;;10.43;4.13;;;;;;;3.44;95.72;99924.41;5025076;28;20050;-78
2021/03/15 03:10:48;;;;;;;9.73;4.57;;;;;;;3.41;95.40;99928.91;5021099;28;20053;-77
2021/03/15 03:13:17;;;;;;;16.88;4.35;;;;;;;3.37;95.85;99927.31;4981312;28;20081;-78
2021/03/15 03:15:44;;;;;;;10.55;5.25;;;;;;;3.45;95.98;99928.72;5014582;28;20145;-78
2021/03/15 03:18:14;;;;;;;13.77;5.43;;;;;;;3.48;96.37;99928.59;4996421;28;20085;-79
2021/03/15 03:20:43;;;;;;;9.75;5.40;;;;;;;3.52;95.76;99931.91;5024076;28;20215;-79
2021/03/15 03:23:10;;;;;;;13.35;5.45;;;;;;;3.53;96.32;99936.22;4996337;28;20145;-77
2021/03/15 03:25:37;;;;;;;12.18;5.60;;;;;;;3.54;96.07;99933.53;5018815;28;20073;-78
2021/03/15 03:28:05;;;;;;;20.33;6.10;;;;;;;3.59;96.39;99927.28;5017228;28;20050;-79
2021/03/15 03:30:33;;;;;;;11.13;6.10;;;;;;;3.63;95.63;99923.66;5017906;28;20061;-78
2021/03/15 03:33:06;;;;;;;13.40;6.03;;;;;;;3.71;95.41;99927.63;4996076;28;20073;-77
2021/03/15 03:35:33;;;;;;;10.48;6.50;;;;;;;3.71;95.92;99934.59;5017760;28;20064;-78
2021/03/15 03:38:00;;;;;;;15.65;7.00;;;;;;;3.78;95.68;99923.88;5013076;28;20125;-78
2021/03/15 03:40:27;;;;;;;23.30;9.75;;;;;;;3.59;95.90;99920.34;4998204;28;20063;-78
2021/03/15 03:42:54;;;;;;;12.88;8.05;;;;;;;3.53;96.01;99924.03;4991988;28;20095;-78
2021/03/15 03:45:22;;;;;;;19.10;7.93;;;;;;;3.52;96.49;99922.34;5014062;28;20151;-77
2021/03/15 03:47:49;;;;;;;23.70;8.63;;;;;;;3.63;95.81;99919.28;5020789;28;20053;-78
2021/03/15 03:50:22;;;;;;;13.93;8.52;;;;;;;3.59;95.50;99920.34;5011572;28;20132;-79
2021/03/15 03:52:56;;;;;;;17.73;7.95;;;;;;;3.61;95.78;99925.50;4999659;28;20125;-77
2021/03/15 03:55:27;;;;;;;13.70;7.47;;;;;;;3.43;96.45;99917.53;4999522;28;20804;-78
2021/03/15 03:57:56;;;;;;;16.33;7.97;;;;;;;3.61;96.29;99912.47;5017367;28;20285;-79
2021/03/15 04:00:23;;;;;;;19.83;7.68;;;;;;;3.36;96.53;99917.84;5013118;28;20391;-77
2021/03/15 04:02:53;;;;;;;17.70;7.65;;;;;;;3.31;96.54;99918.03;5015734;28;20545;-78
2021/03/15 04:05:28;;;;;;;14.90;7.70;;;;;;;3.26;96.18;99919.97;4996375;28;20052;-78
2021/03/15 04:07:58;;;;;;;17.20;7.40;;;;;;;3.17;96.16;99912.53;5017463;28;20108;-79
2021/03/15 04:10:27;;;;;;;19.70;7.25;;;;;;;3.28;96.54;99910.31;4982487;28;20060;-78
2021/03/15 04:12:57;;;;;;;14.13;7.43;;;;;;;3.39;96.24;99913.34;5001091;28;20088;-78
2021/03/15 04:15:24;;;;;;;20.52;7.47;;;;;;;3.33;96.02;99908.38;5027741;28;20056;-79
2021/03/15 04:17:51;;;;;;;12.93;6.78;;;;;;;3.38;96.40;99913.41;5009916;28;20045;-77
2021/03/15 04:20:31;;;;;;;19.80;6.93;;;;;;;3.38;96.11;99916.88;5010073;28;20068;-77
2021/03/15 04:23:00;;;;;;;15.68;7.30;;;;;;;3.36;96.12;99916.06;5008885;28;20045;-79
2021/03/15 04:25:30;;;;;;;14.10;7.25;;;;;;;3.18;96.44;99912.47;5009576;28;20084;-78
2021/03/15 04:27:58;;;;;;;10.23;6.80;;;;;;;3.10;96.94;99914.50;4997820;28;20469;-78
2021/03/15 04:30:25;;;;;;;12.57;6.47;;;;;;;3.00;97.36;99923.59;5015331;28;20100;-78
2021/03/15 04:32:53;;;;;;;14.30;6.60;;;;;;;2.94;97.74;99914.28;5015641;28;20057;-78
2021/03/15 04:35:23;;;;;;;10.57;7.32;;;;;;;2.97;97.60;99924.56;5014969;28;20065;-80
2021/03/15 04:37:50;;;;;;;12.57;6.75;;;;;;;3.12;97.80;99923.13;5000553;28;20075;-78
2021/03/15 04:40:19;;;;;;;15.73;7.38;;;;;;;3.14;97.01;99923.88;4992044;28;21074;-78
2021/03/15 04:42:46;;;;;;;12.20;6.72;;;;;;;3.17;97.61;99910.78;5010533;28;20047;-78
2021/03/15 04:45:14;;;;;;;20.25;8.40;;;;;;;3.11;96.94;99924.03;4992350;28;20556;-78
2021/03/15 04:47:41;;;;;;;15.68;6.82;;;;;;;2.96;97.95;99919.41;4994383;28;20411;-77
2021/03/15 04:50:11;;;;;;;15.75;6.60;;;;;;;2.99;97.99;99925.34;4991094;28;20041;-78
2021/03/15 04:52:39;;;;;;;17.67;7.28;;;;;;;2.97;97.59;99919.38;5000214;28;20079;-78
2021/03/15 04:55:08;;;;;;;14.02;7.25;;;;;;;2.96;97.51;99919.41;5014648;28;20050;-77
2021/03/15 04:57:35;;;;;;;14.35;6.82;;;;;;;3.04;97.35;99918.22;4995239;28;20060;-78
2021/03/15 05:00:07;;;;;;;14.02;6.93;;;;;;;3.13;96.97;99918.75;5016334;28;20057;-78
2021/03/15 05:02:34;;;;;;;22.70;7.00;;;;;;;3.03;96.92;99921.72;4998348;28;20148;-77
2021/03/15 05:05:02;;;;;;;19.60;8.30;;;;;;;2.95;97.42;99909.91;4992160;28;20061;-80
2021/03/15 05:07:30;;;;;;;16.70;6.95;;;;;;;2.91;97.30;99909.19;5019469;28;20045;-76
2021/03/15 05:09:59;;;;;;;15.95;7.10;;;;;;;2.81;97.93;99914.81;4985498;28;20060;-78
2021/03/15 05:12:27;;;;;;;13.93;7.03;;;;;;;2.90;97.25;99911.88;5002203;28;20079;-78
2021/03/15 05:14:55;;;;;;;15.95;7.50;;;;;;;3.01;96.98;99904.47;5012913;28;20061;-78
2021/03/15 05:17:22;;;;;;;11.85;6.65;;;;;;;3.03;96.75;99902.69;5014145;28;20100;-79
2021/03/15 05:19:52;;;;;;;15.05;7.68;;;;;;;3.11;96.52;99905.81;5000000;28;20051;-78
2021/03/15 05:22:19;;;;;;;13.80;6.05;;;;;;;3.05;96.21;99904.28;5017986;28;20163;-79
2021/03/15 05:24:46;;;;;;;17.88;6.55;;;;;;;3.13;95.25;99906.59;5011328;28;20048;-78
2021/03/15 05:27:13;;;;;;;11.68;6.18;;;;;;;3.18;95.82;99907.25;5013014;28;20062;-79
2021/03/15 05:29:40;;;;;;;12.35;6.47;;;;;;;3.15;94.64;99906.53;4994309;28;20050;-79
2021/03/15 05:32:07;;;;;;;17.70;6.40;;;;;;;3.16;95.46;99908.25;5011425;28;20149;-78
2021/03/15 05:34:35;;;;;;;17.00;7.13;;;;;;;3.20;95.47;99900.25;5007972;28;20076;-77
2021/03/15 05:37:03;;;;;;;21.25;7.43;;;;;;;3.18;95.18;99904.66;5014602;28;20516;-78
2021/03/15 05:39:30;;;;;;;17.52;7.15;;;;;;;3.25;95.12;99910.47;5015348;28;20095;-78
2021/03/15 05:42:21;;;;;;;11.65;7.00;;;;;;;3.32;94.48;99901.50;5014894;28;20068;-78
2021/03/15 05:45:10;;;;;;;15.05;6.57;;;;;;;3.20;94.71;99902.00;5033205;23;20091;-72
2021/03/15 05:48:20;;;;;;;16.92;7.13;;;;;;;3.03;94.45;99910.47;5039105;28;20068;-70
2021/03/15 05:51:07;;;;;;;17.70;7.15;;;;;;;3.03;94.78;99907.88;5039704;28;20067;-70
2021/03/15 05:54:15;;;;;;;17.30;6.97;;;;;;;3.20;94.27;99908.06;5056583;28;20147;-71
2021/03/15 05:56:53;;;;;;;12.27;6.10;;;;;;;3.31;93.51;99907.63;5032077;28;20049;-71
2021/03/15 05:59:42;;;;;;;18.83;7.65;;;;;;;3.45;92.81;99907.03;5006742;28;20042;-71
2021/03/15 06:02:24;;;;;;;10.90;6.32;;;;;;;3.51;92.57;99906.78;5005503;28;20067;-71
2021/03/15 06:05:28;;;;;;;13.35;6.80;;;;;;;3.57;92.04;99903.94;4994121;28;20041;-71
2021/03/15 06:08:07;;;;;;;15.98;6.25;;;;;;;3.40;91.99;99902.03;5015997;28;20054;-71
2021/03/15 06:10:35;;;;;;;13.65;6.90;;;;;;;3.49;92.45;99906.00;5001691;28;20038;-72
2021/03/15 06:13:11;;;;;;;22.13;8.48;;;;;;;3.53;92.06;99902.38;5019584;28;20072;-72
2021/03/15 06:15:39;;;;;;;12.85;6.43;;;;;;;3.69;91.26;99897.38;5011149;28;20065;-72
2021/03/15 06:18:12;;;;;;;16.05;6.90;;;;;;;3.83;90.43;99902.84;5028199;28;20053;-71
2021/03/15 06:20:44;;;;;;;16.95;6.95;;;;;;;3.81;89.63;99909.88;5029411;28;20053;-71
2021/03/15 06:23:11;;;;;;;13.75;6.75;;;;;;;3.50;91.40;99900.75;5021913;28;20108;-71
2021/03/15 06:25:38;;;;;;;14.25;6.97;;;;;;;3.61;90.80;99900.31;5014077;28;20517;-71
2021/03/15 06:28:09;;;;;;;15.90;6.90;;;;;;;3.57;90.88;99901.34;5010192;28;20054;-71
2021/03/15 06:30:36;;;;;;;16.38;6.57;;;;;;;3.47;91.16;99900.03;4997582;28;20065;-70
2021/03/15 06:33:03;;;;;;;15.73;7.97;;;;;;;3.30;91.51;99898.97;4992738;28;20057;-72
2021/03/15 06:35:35;;;;;;;13.32;6.90;;;;;;;3.28;92.62;99897.31;5001876;28;20064;-72
2021/03/15 06:38:04;;;;;;;21.67;7.10;;;;;;;3.42;91.83;99889.81;5012862;28;20164;-73
2021/03/15 06:40:34;;;;;;;18.23;6.03;;;;;;;3.60;90.72;99900.34;5003945;28;20149;-72
2021/03/15 06:43:03;;;;;;;13.93;5.88;;;;;;;3.77;89.47;99898.72;5012028;28;20065;-71
2021/03/15 06:45:30;;;;;;;13.88;5.82;;;;;;;3.80;88.94;99897.78;5006726;28;20159;-72
2021/03/15 06:47:58;;;;;;;14.27;6.22;;;;;;;3.89;88.72;99899.13;4992175;28;20053;-71
2021/03/15 06:50:24;;;;;;;21.65;6.32;;;;;;;3.51;89.51;99902.47;5013154;28;20049;-76
2021/03/15 06:53:02;;;;;;;24.00;6.35;;;;;;;3.52;90.09;99904.13;5016349;28;20619;-73
2021/03/15 06:55:28;;;;;;;20.63;5.63;;;;;;;3.69;89.26;99908.66;5018432;28;20061;-73
2021/03/15 06:57:55;;;;;;;17.83;6.05;;;;;;;3.65;88.31;99908.81;5021442;28;20073;-72
2021/03/15 07:00:25;;;;;;;31.58;6.47;;;;;;;3.62;88.70;99904.59;5004941;28;21632;-69
2021/03/15 07:03:01;;;;;;;14.27;5.30;;;;;;;3.84;88.65;99909.75;5009215;28;20049;-66
2021/03/15 07:05:29;;;;;;;13.13;5.60;;;;;;;3.94;87.59;99905.84;4995487;28;20076;-69
2021/03/15 07:07:58;;;;;;;37.05;8.27;;;;;;;4.00;87.19;99915.13;5006485;28;20153;-68
2021/03/15 07:10:32;;;;;;;44.53;8.57;;;;;;;3.96;87.25;99913.56;4983437;28;21217;-73
2021/03/15 07:13:13;;;;;;;19.02;5.57;;;;;;;4.06;86.80;99904.47;4997745;28;20045;-70
2021/03/15 07:15:40;;;;;;;14.75;5.28;;;;;;;4.09;86.88;99906.91;5018663;28;20049;-71
2021/03/15 07:18:12;;;;;;;14.52;5.10;;;;;;;4.21;86.02;99908.16;4994592;28;20060;-69
2021/03/15 07:20:54;;;;;;;14.73;5.47;;;;;;;4.23;86.14;99907.19;5017404;28;20077;-72
2021/03/15 07:23:43;;;;;;;14.90;5.78;;;;;;;4.36;85.37;99915.28;4997912;28;20061;-71
2021/03/15 07:26:12;;;;;;;10.32;5.00;;;;;;;4.32;85.50;99916.31;5025687;28;20580;-69
2021/03/15 07:28:43;;;;;;;13.43;5.22;;;;;;;4.40;84.96;99919.44;5018421;28;20065;-71
2021/03/15 07:31:18;;;;;;;14.68;5.25;;;;;;;4.49;85.35;99913.81;5016219;28;20053;-71
2021/03/15 07:33:46;;;;;;;;;;;;;;;4.63;84.76;99907.13;5031086;28;20053;-69
2021/03/15 07:36:13;;;;;;;16.45;4.40;;;;;;;4.45;83.81;99912.25;5015135;28;19925;-70
2021/03/15 07:38:40;;;;;;;11.32;4.70;;;;;;;4.52;83.73;99910.22;5005467;28;20056;-71
2021/03/15 07:41:20;;;;;;;12.88;5.22;;;;;;;4.58;83.54;99912.53;5000138;28;20059;-70
2021/03/15 07:43:47;;;;;;;17.08;5.63;;;;;;;4.76;83.79;99911.69;5023131;28;20404;-71
2021/03/15 07:46:20;;;;;;;22.33;6.38;;;;;;;4.74;85.76;99915.31;5024983;28;20070;-71
2021/03/15 07:48:47;;;;;;;17.17;6.60;;;;;;;4.76;82.81;99919.53;5030088;28;20180;-71
2021/03/15 07:51:27;;;;;;;15.55;6.32;;;;;;;4.97;83.50;99914.22;5011507;28;20049;-70
2021/03/15 07:54:02;;;;;;;12.43;5.63;;;;;;;4.96;82.90;99922.97;5009814;28;20053;-70
2021/03/15 07:56:29;;;;;;;15.98;5.57;;;;;;;4.78;81.86;99924.69;5023449;28;20465;-70
2021/03/15 07:58:55;;;;;;;21.92;5.50;;;;;;;4.95;82.03;99931.69;5007570;28;20132;-70
2021/03/15 08:01:23;;;;;;;11.32;5.03;;;;;;;5.08;81.63;99922.38;5019097;28;20053;-71
2021/03/15 08:03:51;;;;;;;13.52;4.95;;;;;;;5.46;79.83;99931.00;5029576;28;20049;-70
2021/03/15 08:06:20;;;;;;;19.05;6.20;;;;;;;5.63;78.91;99930.16;5044637;28;20125;-70
2021/03/15 08:08:51;;;;;;;14.80;4.90;;;;;;;5.41;80.34;99946.03;5021231;28;20063;-70
2021/03/15 08:11:18;;;;;;;16.95;5.38;;;;;;;5.34;79.05;99934.19;5015129;28;20413;-69
2021/03/15 08:13:51;;;;;;;17.92;6.38;;;;;;;5.73;78.91;99941.84;5021894;28;20599;-70
2021/03/15 08:16:20;;;;;;;13.73;6.28;;;;;;;5.86;78.45;99938.63;4995710;28;20677;-71
2021/03/15 08:18:48;;;;;;;17.05;7.63;;;;;;;5.89;77.50;99935.81;5006956;28;20092;-69
2021/03/15 08:21:26;;;;;;;10.63;4.85;;;;;;;6.16;76.59;99944.91;5011768;28;20088;-71
2021/03/15 08:23:55;;;;;;;11.73;4.60;;;;;;;6.09;76.98;99933.94;5036206;28;20045;-70
2021/03/15 08:26:22;;;;;;;15.07;4.30;;;;;;;6.63;74.15;99935.50;5015075;28;20057;-71
2021/03/15 08:28:53;;;;;;;15.27;7.22;;;;;;;8.27;68.93;99921.75;5014222;28;20049;-72
2021/03/15 08:31:40;;;;;;;14.18;5.40;;;;;;;9.87;62.70;99921.16;5024716;28;20140;-70
2021/03/15 08:34:10;;;;;;;8.18;4.03;;;;;;;11.27;57.21;99912.25;5037669;28;20061;-70
2021/03/15 08:36:39;;;;;;;9.35;4.00;;;;;;;9.83;59.22;99914.44;5027805;28;20045;-72
2021/03/15 08:39:27;;;;;;;8.27;4.05;;;;;;;9.33;63.22;99916.00;4991348;28;20053;-70
2021/03/15 08:42:06;;;;;;;12.52;4.45;;;;;;;8.65;65.41;99914.19;5014824;28;20071;-69
2021/03/15 08:44:51;;;;;;;14.63;4.45;;;;;;;8.34;66.70;99902.09;5022486;28;20058;-69
2021/03/15 08:47:50;;;;;;;10.23;3.80;;;;;;;7.83;68.45;99918.22;5039842;28;20063;-69
2021/03/15 08:50:33;;;;;;;8.60;4.45;;;;;;;7.67;68.97;99912.19;5016641;28;20073;-71
2021/03/15 08:53:00;;;;;;;8.27;5.00;;;;;;;7.39;70.13;99905.09;5047807;28;20045;-71
2021/03/15 08:55:41;;;;;;;12.02;6.00;;;;;;;6.77;72.19;99904.22;5028776;28;20061;-73
2021/03/15 08:58:40;;;;;;;21.35;5.93;;;;;;;6.40;74.71;99911.44;5014454;28;20037;-70
2021/03/15 09:01:09;;;;;;;45.17;9.25;;;;;;;6.73;74.23;99903.53;5014114;28;20064;-70
2021/03/15 09:03:59;;;;;;;61.88;12.25;;;;;;;6.18;76.28;99905.63;4991516;28;20038;-69
2021/03/15 09:06:38;;;;;;;25.05;6.82;;;;;;;6.36;75.30;99904.66;5015028;28;20061;-72
2021/03/15 09:09:14;;;;;;;18.77;6.18;;;;;;;6.30;75.48;99902.38;5016842;28;20061;-72
2021/03/15 09:11:41;;;;;;;10.05;5.05;;;;;;;6.64;74.97;99890.94;5021039;28;20106;-71
2021/03/15 09:14:13;;;;;;;15.35;7.15;;;;;;;6.72;73.27;99896.63;4992776;28;20084;-71
2021/03/15 09:16:42;;;;;;;9.88;5.72;;;;;;;6.52;75.55;99905.53;5035658;28;20102;-71
2021/03/15 09:19:30;;;;;;;9.13;5.40;;;;;;;6.74;73.65;99897.38;5005286;28;20049;-71
2021/03/15 09:22:04;;;;;;;32.72;5.93;;;;;;;6.79;73.66;99897.09;5010616;28;20104;-70
2021/03/15 09:24:40;;;;;;;16.38;4.93;;;;;;;6.94;72.99;99896.28;5024611;28;20076;-71
2021/03/15 09:27:11;;;;;;;11.55;5.40;;;;;;;7.18;72.75;99895.84;5021288;28;20397;-71
2021/03/15 09:29:38;;;;;;;12.57;4.88;;;;;;;7.22;72.76;99894.72;5023492;28;20052;-71
2021/03/15 09:32:11;;;;;;;6.55;4.90;;;;;;;7.58;70.84;99890.00;5018564;28;20067;-70
2021/03/15 09:34:38;;;;;;;9.77;4.60;;;;;;;7.93;70.11;99894.09;5032675;28;20057;-71
2021/03/15 09:37:05;;;;;;;12.48;4.72;;;;;;;8.29;67.27;99893.66;5019941;28;20056;-69
2021/03/15 09:39:32;;;;;;;13.10;4.85;;;;;;;7.96;68.10;99884.25;4999103;28;20050;-71
2021/03/15 09:41:59;;;;;;;14.57;5.07;;;;;;;8.48;67.14;99881.13;5010629;28;20056;-70
2021/03/15 09:44:30;;;;;;;19.52;4.90;;;;;;;8.84;65.36;99887.63;5012508;28;20127;-70
2021/03/15 09:46:59;;;;;;;6.75;3.80;;;;;;;8.98;63.83;99882.34;4997776;28;20053;-71
2021/03/15 09:49:36;;;;;;;7.28;3.85;;;;;;;9.11;64.71;99882.41;5041748;28;20083;-70
2021/03/15 09:52:22;;;;;;;8.15;4.05;;;;;;;9.09;63.98;99885.09;5000223;28;20072;-70
2021/03/15 09:54:51;;;;;;;5.03;3.50;;;;;;;8.84;64.17;99880.59;5014118;28;20723;-70
2021/03/15 09:57:19;;;;;;;5.88;3.45;;;;;;;9.38;62.90;99885.00;5020630;28;20052;-70
2021/03/15 10:00:14;;;;;;;7.65;3.22;;;;;;;8.95;63.90;99879.91;4984862;28;20101;-71
2021/03/15 10:02:43;;;;;;;9.02;3.50;;;;;;;8.66;64.81;99880.91;5042387;28;20037;-71
2021/03/15 10:05:17;;;;;;;6.50;2.78;;;;;;;8.76;64.18;99888.09;5019755;28;20127;-71
2021/03/15 10:07:46;;;;;;;5.57;3.03;;;;;;;8.59;63.90;99875.19;5034647;28;20057;-71
2021/03/15 10:10:21;;;;;;;29.23;5.10;;;;;;;8.58;65.07;99876.13;5032221;28;20476;-71
2021/03/15 10:12:49;;;;;;;10.20;3.88;;;;;;;8.01;66.75;99882.19;5019115;28;20741;-70
2021/03/15 10:15:19;;;;;;;13.60;3.95;;;;;;;8.64;64.61;99867.88;5017820;28;20060;-70
2021/03/15 10:17:47;;;;;;;8.93;3.97;;;;;;;8.37;66.18;99867.81;5038168;28;20543;-70
2021/03/15 10:20:32;;;;;;;12.30;3.17;;;;;;;8.19;66.54;99874.16;5009989;28;20135;-72
2021/03/15 10:23:12;;;;;;;27.98;5.32;;;;;;;7.70;68.35;99867.50;5016860;28;20053;-69
2021/03/15 10:25:40;;;;;;;19.10;3.63;;;;;;;7.84;67.46;99867.50;5023333;28;20095;-72
2021/03/15 10:28:07;;;;;;;19.67;3.72;;;;;;;7.43;68.90;99863.84;5010812;28;20037;-70
2021/03/15 10:30:36;;;;;;;16.98;3.58;;;;;;;7.10;69.55;99863.06;5016823;28;20516;-70
2021/03/15 10:33:03;;;;;;;13.55;3.95;;;;;;;7.03;69.61;99858.28;5000322;28;20075;-71
2021/03/15 10:35:31;;;;;;;8.48;2.60;;;;;;;7.13;69.29;99856.00;5022076;28;20056;-72
2021/03/15 10:38:00;;;;;;;7.25;2.80;;;;;;;6.64;71.36;99856.97;5030154;28;20126;-70
2021/03/15 10:40:28;;;;;;;8.57;2.47;;;;;;;6.66;71.24;99856.84;5004127;28;20049;-71
2021/03/15 10:43:02;;;;;;;23.05;3.55;;;;;;;6.87;69.75;99855.69;5016910;28;20115;-71
2021/03/15 10:45:29;;;;;;;13.75;2.72;;;;;;;7.62;68.00;99856.63;5009165;28;20070;-71
2021/03/15 10:48:02;;;;;;;6.78;3.40;;;;;;;7.65;66.84;99864.28;5040114;28;20042;-71
2021/03/15 10:50:34;;;;;;;13.93;3.42;;;;;;;7.82;65.96;99861.50;5042634;28;20049;-71
2021/03/15 10:53:18;;;;;;;11.07;2.35;;;;;;;8.11;65.36;99858.91;5022611;28;20084;-69
2021/03/15 10:55:46;;;;;;;11.55;2.50;;;;;;;8.15;65.31;99857.78;5003441;28;20063;-72
2021/03/15 10:58:15;;;;;;;11.50;2.55;;;;;;;8.12;65.82;99852.72;5022798;28;20050;-72
2021/03/15 11:00:50;;;;;;;4.63;2.13;;;;;;;8.19;65.00;99851.41;5017380;28;20596;-71
2021/03/15 11:03:23;;;;;;;17.10;3.30;;;;;;;8.16;65.74;99854.22;5007915;28;20045;-71
2021/03/15 11:06:07;;;;;;;7.35;2.10;;;;;;;8.09;64.88;99855.53;5034591;28;20367;-70
2021/03/15 11:08:34;;;;;;;36.92;4.07;;;;;;;8.20;65.78;99852.28;5026135;28;20056;-69
2021/03/15 11:11:14;;;;;;;2.70;1.30;;;;;;;8.68;63.81;99840.50;5028740;28;20064;-70
2021/03/15 11:13:45;;;;;;;2.88;1.45;;;;;;;8.71;63.16;99836.84;4997461;28;20049;-70
2021/03/15 11:16:24;;;;;;;5.30;1.75;;;;;;;9.00;62.42;99835.81;5022598;28;20151;-73
2021/03/15 11:19:03;;;;;;;5.75;1.70;;;;;;;9.25;61.63;99835.06;5025610;28;20506;-70
2021/03/15 11:21:31;;;;;;;7.18;2.20;;;;;;;8.62;62.94;99836.50;5034380;28;20122;-71
2021/03/15 11:23:59;;;;;;;3.30;1.60;;;;;;;8.34;63.58;99834.75;5026361;28;20540;-69
2021/03/15 11:26:26;;;;;;;11.50;1.98;;;;;;;8.11;64.68;99837.94;5001619;28;20053;-71
2021/03/15 11:28:55;;;;;;;4.55;1.63;;;;;;;8.07;64.97;99839.91;5028475;28;20452;-70
2021/03/15 11:31:23;;;;;;;15.70;2.85;;;;;;;8.10;67.89;99834.50;5035762;28;20057;-70
2021/03/15 11:33:59;;;;;;;3.67;2.40;;;;;;;7.29;72.17;99836.69;5026167;28;20060;-69
2021/03/15 11:36:28;;;;;;;6.13;2.17;;;;;;;7.24;72.39;99833.47;5035383;28;20063;-71
2021/03/15 11:39:01;;;;;;;26.55;3.13;;;;;;;7.45;72.08;99833.19;5033912;28;20122;-71
2021/03/15 11:41:29;;;;;;;29.52;4.38;;;;;;;7.25;72.03;99823.84;5023955;28;20040;-71
2021/03/15 11:43:56;;;;;;;28.17;3.95;;;;;;;8.01;69.83;99827.16;5031443;28;20049;-70
2021/03/15 11:46:22;;;;;;;10.27;3.22;;;;;;;8.43;69.89;99819.41;5030879;28;20049;-70
2021/03/15 11:48:50;;;;;;;5.97;3.05;;;;;;;8.16;68.22;99809.66;4988798;28;20049;-70
2021/03/15 11:51:18;;;;;;;8.88;2.90;;;;;;;7.69;68.54;99823.03;5025545;28;20057;-71
2021/03/15 11:53:45;;;;;;;22.70;3.38;;;;;;;7.63;68.80;99820.78;4991327;28;20065;-71
2021/03/15 11:56:15;;;;;;;5.85;2.50;;;;;;;7.54;68.90;99812.53;5006912;28;20052;-70